Time;durP1;ratioP1;P1;durP2;ratioP2;P2;SDS_P1;SDS_P2;PMS_P1;PMS_P2;Temp;Humidity;BMP_temperature;BMP_pressure;BME280_temperature;BME280_humidity;BME280_pressure;Samples;Min_cycle;Max_cycle;Signal;HPM_P1;HPM_P2
2021/01/15 00:00:57;;;;;;;20.80;8.95;;;;;;;0.29;79.32;101911.31;5139684;27;20242;-59
2021/01/15 00:03:23;;;;;;;15.85;7.47;;;;;;;0.24;79.78;101908.28;5137534;27;20238;-56
2021/01/15 00:05:51;;;;;;;42.92;19.45;;;;;;;0.26;81.03;101911.91;5139034;27;20313;-56
2021/01/15 00:08:17;;;;;;;30.10;14.50;;;;;;;0.04;80.35;101901.19;5137609;27;20318;-52
2021/01/15 00:10:44;;;;;;;29.23;14.13;;;;;;;-0.05;80.04;101898.63;5139692;27;20506;-56
2021/01/15 00:13:10;;;;;;;14.02;5.78;;;;;;;-0.15;79.79;101905.25;5137776;27;20238;-56
2021/01/15 00:15:37;;;;;;;11.20;5.30;;;;;;;-0.15;78.71;101912.00;5139210;27;20310;-56
2021/01/15 00:18:06;;;;;;;12.00;6.38;;;;;;;-0.23;78.69;101906.13;5137366;27;20230;-55
2021/01/15 00:20:33;;;;;;;12.60;6.60;;;;;;;-0.17;78.89;101899.13;5139721;27;20289;-58
2021/01/15 00:23:00;;;;;;;12.10;5.70;;;;;;;-0.27;79.00;101903.97;5137751;27;20536;-55
2021/01/15 00:25:26;;;;;;;11.25;6.35;;;;;;;-0.36;79.06;101903.91;5139026;27;20245;-56
2021/01/15 00:27:53;;;;;;;10.18;5.32;;;;;;;-0.32;79.42;101906.06;5137010;27;20239;-52
2021/01/15 00:30:20;;;;;;;11.35;5.32;;;;;;;-0.22;79.21;101905.38;5138789;27;20198;-53
2021/01/15 00:32:47;;;;;;;11.43;6.15;;;;;;;-0.21;78.90;101897.00;5137170;27;20258;-57
2021/01/15 00:35:15;;;;;;;18.30;7.10;;;;;;;-0.23;80.65;101907.72;5138668;27;20234;-54
2021/01/15 00:37:42;;;;;;;12.98;6.90;;;;;;;-0.08;80.72;101903.34;5137134;27;20262;-57
2021/01/15 00:40:10;;;;;;;17.00;8.23;;;;;;;-0.18;81.39;101907.50;5138718;27;20202;-56
2021/01/15 00:42:36;;;;;;;21.25;9.40;;;;;;;-0.24;81.99;101903.41;5136900;27;20230;-52
2021/01/15 00:45:04;;;;;;;14.23;8.00;;;;;;;-0.14;82.07;101891.81;5138474;27;20234;-56
2021/01/15 00:47:31;;;;;;;16.42;8.35;;;;;;;-0.21;82.91;101897.00;5136460;27;20327;-53
2021/01/15 00:49:58;;;;;;;15.20;8.07;;;;;;;-0.20;82.85;101903.88;5138845;27;20293;-60
2021/01/15 00:52:26;;;;;;;17.92;7.65;;;;;;;-0.02;82.82;101904.00;5136233;27;20230;-58
2021/01/15 00:54:52;;;;;;;15.65;8.60;;;;;;;-0.25;84.14;101907.59;5138466;27;20226;-56
2021/01/15 00:57:19;;;;;;;26.98;12.18;;;;;;;-0.23;84.44;101907.72;5126142;27;20321;-55
2021/01/15 00:59:46;;;;;;;19.50;9.25;;;;;;;-0.20;84.88;101908.94;5132223;27;20194;-56
2021/01/15 01:02:13;;;;;;;20.10;9.20;;;;;;;-0.29;85.47;101906.34;5135434;27;20227;-59
2021/01/15 01:04:40;;;;;;;18.75;9.48;;;;;;;-0.33;85.76;101916.03;5138259;27;20230;-57
2021/01/15 01:07:07;;;;;;;23.52;11.63;;;;;;;-0.29;86.51;101910.53;5136675;27;20215;-54
2021/01/15 01:09:34;;;;;;;19.67;9.98;;;;;;;-0.44;86.93;101913.28;5136719;27;20233;-54
2021/01/15 01:12:01;;;;;;;21.08;10.05;;;;;;;-0.43;87.23;101915.09;5135762;27;20267;-60
2021/01/15 01:14:28;;;;;;;22.58;10.65;;;;;;;-0.45;87.19;101921.59;5136396;27;20261;-51
2021/01/15 01:16:55;;;;;;;22.60;11.18;;;;;;;-0.43;87.71;101925.22;5137873;27;20306;-54
2021/01/15 01:19:21;;;;;;;22.77;10.50;;;;;;;-0.42;88.25;101931.19;5135745;27;20241;-54
2021/01/15 01:21:48;;;;;;;20.10;10.68;;;;;;;-0.45;87.94;101926.69;5138034;27;20199;-56
2021/01/15 01:24:15;;;;;;;21.00;10.00;;;;;;;-0.40;87.93;101929.72;5135776;27;20245;-57
2021/01/15 01:26:42;;;;;;;19.55;9.98;;;;;;;-0.35;87.95;101928.56;5138012;27;20271;-57
2021/01/15 01:29:09;;;;;;;31.10;13.75;;;;;;;-0.41;88.54;101928.81;5136117;27;20248;-54
2021/01/15 01:31:36;;;;;;;21.52;10.32;;;;;;;-0.44;88.15;101923.44;5137970;27;20222;-55
2021/01/15 01:34:02;;;;;;;23.30;11.65;;;;;;;-0.33;88.24;101928.72;5135439;27;20234;-56
2021/01/15 01:36:29;;;;;;;24.15;11.18;;;;;;;-0.26;87.95;101927.72;5137886;27;20579;-57
2021/01/15 01:38:55;;;;;;;24.75;11.93;;;;;;;-0.22;88.07;101929.81;5135949;27;20236;-57
2021/01/15 01:41:22;;;;;;;24.00;11.77;;;;;;;-0.22;87.73;101934.91;5137752;27;20194;-56
2021/01/15 01:43:49;;;;;;;30.25;13.25;;;;;;;-0.26;88.33;101940.41;5135791;27;20248;-57
2021/01/15 01:46:17;;;;;;;125.22;43.03;;;;;;;-0.21;88.27;101937.59;5137296;27;20250;-55
2021/01/15 01:48:44;;;;;;;23.15;12.13;;;;;;;-0.36;88.39;101941.09;5135531;27;20667;-58
2021/01/15 01:51:12;;;;;;;23.35;11.98;;;;;;;-0.20;88.15;101938.50;5137589;27;20209;-54
2021/01/15 01:53:39;;;;;;;19.33;10.38;;;;;;;-0.26;87.76;101938.75;5135590;27;20242;-57
2021/01/15 01:56:06;;;;;;;38.80;16.98;;;;;;;-0.20;88.26;101941.06;5137065;27;20222;-58
2021/01/15 01:58:34;;;;;;;24.13;12.00;;;;;;;-0.33;88.18;101941.41;5135294;27;20250;-58
2021/01/15 02:01:04;;;;;;;29.38;13.63;;;;;;;-0.18;88.21;101940.47;5137106;27;20206;-54
2021/01/15 02:03:31;;;;;;;26.45;13.05;;;;;;;-0.21;87.95;101932.53;5135340;27;20246;-53
2021/01/15 02:05:58;;;;;;;23.92;11.18;;;;;;;-0.21;88.18;101945.22;5137070;27;20270;-56
2021/01/15 02:08:27;;;;;;;23.10;11.45;;;;;;;-0.21;87.73;101940.13;5135190;27;20317;-56
2021/01/15 02:11:02;;;;;;;26.38;11.32;;;;;;;-0.31;87.94;101937.41;5137023;27;20241;-59
2021/01/15 02:13:35;;;;;;;20.50;10.88;;;;;;;-0.42;88.42;101947.31;5135222;27;20262;-59
2021/01/15 02:16:05;;;;;;;32.00;14.77;;;;;;;-0.26;88.43;101946.38;5136740;27;20627;-56
2021/01/15 02:18:37;;;;;;;25.25;11.38;;;;;;;-0.28;88.00;101945.31;5130593;27;20241;-58
2021/01/15 02:21:34;;;;;;;22.45;11.57;;;;;;;-0.30;87.92;101946.81;5130994;27;20222;-58
2021/01/15 02:24:06;;;;;;;21.25;10.55;;;;;;;-0.29;87.87;101943.53;5134728;27;20246;-58
2021/01/15 02:27:06;;;;;;;24.17;10.63;;;;;;;-0.44;88.38;101938.66;5136596;27;20238;-56
2021/01/15 02:29:33;;;;;;;28.67;11.10;;;;;;;-0.41;88.17;101938.06;5136263;27;20234;-58
2021/01/15 02:32:18;;;;;;;23.27;11.43;;;;;;;-0.36;88.44;101941.09;5137035;27;20202;-54
2021/01/15 02:35:06;;;;;;;27.95;12.43;;;;;;;-0.20;88.06;101947.00;5135666;27;20517;-56
2021/01/15 02:37:42;;;;;;;24.40;11.10;;;;;;;-0.31;88.14;101943.34;5135336;27;20234;-58
2021/01/15 02:40:17;;;;;;;32.47;14.20;;;;;;;-0.31;88.42;101950.09;5136949;27;20572;-59
2021/01/15 02:42:44;;;;;;;36.30;17.45;;;;;;;-0.20;88.76;101941.06;5134825;27;20325;-59
2021/01/15 02:45:12;;;;;;;22.52;11.65;;;;;;;-0.37;88.22;101939.28;5136631;28;20207;-58
2021/01/15 02:47:47;;;;;;;23.63;12.05;;;;;;;-0.29;88.11;101948.59;5134925;27;20302;-58
2021/01/15 02:50:15;;;;;;;18.42;9.57;;;;;;;-0.32;87.86;101948.25;5136656;28;20195;-59
2021/01/15 02:52:42;;;;;;;21.25;10.85;;;;;;;-0.24;87.40;101947.44;5134102;27;20335;-57
2021/01/15 02:55:10;;;;;;;21.90;10.15;;;;;;;-0.20;86.89;101951.19;5136165;28;20511;-56
2021/01/15 02:57:37;;;;;;;21.45;9.77;;;;;;;-0.32;86.11;101954.25;5133962;28;20237;-58
2021/01/15 03:00:06;;;;;;;20.83;10.18;;;;;;;-0.31;86.23;101955.16;5136549;28;20297;-54
2021/01/15 03:02:42;;;;;;;25.20;10.85;;;;;;;-0.32;86.24;101956.78;5134879;28;20235;-58
2021/01/15 03:05:10;;;;;;;80.18;34.40;;;;;;;-0.37;87.19;101960.47;5136352;28;20228;-56
2021/01/15 03:07:39;;;;;;;15.10;7.55;;;;;;;-0.05;86.00;101968.00;5134707;28;20261;-57
2021/01/15 03:10:07;;;;;;;17.77;7.65;;;;;;;-0.22;85.82;101958.63;5136646;28;20600;-58
2021/01/15 03:12:34;;;;;;;28.05;12.25;;;;;;;-0.02;85.69;101964.88;5134474;28;20261;-59
2021/01/15 03:15:01;;;;;;;16.20;7.95;;;;;;;0.03;85.34;101962.81;5136148;28;20607;-57
2021/01/15 03:17:31;;;;;;;21.30;9.40;;;;;;;-0.16;85.04;101968.53;5134672;28;20258;-56
2021/01/15 03:20:00;;;;;;;16.80;6.75;;;;;;;-0.19;84.75;101971.66;5136609;28;20210;-55
2021/01/15 03:22:26;;;;;;;14.68;7.03;;;;;;;-0.15;84.53;101967.81;5134824;28;20237;-56
2021/01/15 03:24:55;;;;;;;24.05;11.63;;;;;;;-0.06;84.94;101970.41;5136471;27;20290;-56
2021/01/15 03:27:22;;;;;;;15.88;7.25;;;;;;;0.10;84.37;101981.38;5138506;27;20318;-59
2021/01/15 03:29:49;;;;;;;19.90;9.30;;;;;;;0.08;84.86;101981.97;5140731;27;20286;-58
2021/01/15 03:32:16;;;;;;;19.25;8.30;;;;;;;0.06;83.72;101989.41;5138362;27;20676;-54
2021/01/15 03:34:43;;;;;;;19.00;8.63;;;;;;;-0.15;83.65;101983.91;5139974;27;20276;-59
2021/01/15 03:37:11;;;;;;;18.45;7.97;;;;;;;-0.26;83.44;101978.47;5138540;27;20228;-58
2021/01/15 03:39:37;;;;;;;27.65;12.98;;;;;;;-0.18;83.36;101983.59;5140015;27;20230;-57
2021/01/15 03:42:04;;;;;;;14.18;7.15;;;;;;;-0.21;83.54;101983.28;5138567;27;20199;-58
2021/01/15 03:44:31;;;;;;;21.02;8.43;;;;;;;-0.20;83.84;101985.06;5139874;27;20234;-58
2021/01/15 03:46:58;;;;;;;98.68;38.60;;;;;;;-0.12;84.08;101983.34;5139975;27;20219;-58
2021/01/15 03:49:25;;;;;;;18.27;6.88;;;;;;;-0.28;83.57;101978.28;5138969;27;20226;-57
2021/01/15 03:51:52;;;;;;;14.60;8.02;;;;;;;-0.31;83.42;101981.41;5140052;27;20224;-59
2021/01/15 03:54:19;;;;;;;23.05;10.32;;;;;;;-0.37;83.42;101974.81;5137745;27;20330;-60
2021/01/15 03:56:46;;;;;;;15.90;8.20;;;;;;;-0.38;83.37;101980.59;5140068;27;20219;-57
2021/01/15 03:59:13;;;;;;;17.33;7.88;;;;;;;-0.24;83.79;101982.97;5137811;27;20658;-59
2021/01/15 04:01:40;;;;;;;16.77;7.18;;;;;;;-0.37;83.46;101988.38;5139746;27;20206;-57
2021/01/15 04:04:07;;;;;;;15.05;6.75;;;;;;;-0.35;83.80;101989.44;5138347;27;20234;-57
2021/01/15 04:06:33;;;;;;;16.48;7.00;;;;;;;-0.36;83.61;101989.28;5139671;27;20314;-59
2021/01/15 04:09:00;;;;;;;18.25;6.80;;;;;;;-0.47;83.99;101986.50;5137515;27;20234;-57
2021/01/15 04:11:28;;;;;;;12.65;6.32;;;;;;;-0.47;83.84;101983.97;5139831;27;20578;-59
2021/01/15 04:13:55;;;;;;;17.00;7.05;;;;;;;-0.40;84.29;101985.53;5137628;27;20234;-58
2021/01/15 04:16:22;;;;;;;19.15;7.93;;;;;;;-0.44;84.29;101984.31;5139541;27;20254;-57
2021/01/15 04:18:48;;;;;;;21.95;10.60;;;;;;;-0.32;84.76;101986.31;5137592;27;20569;-57
2021/01/15 04:21:15;;;;;;;16.98;6.85;;;;;;;-0.49;84.44;101989.59;5138413;27;20206;-56
2021/01/15 04:23:43;;;;;;;15.63;7.72;;;;;;;-0.55;83.86;101985.66;5136165;27;20258;-59
2021/01/15 04:26:10;;;;;;;16.95;6.85;;;;;;;-0.60;83.90;101986.84;5138064;27;20302;-58
2021/01/15 04:28:37;;;;;;;16.98;7.40;;;;;;;-0.46;83.59;101979.81;5136562;27;20577;-59
2021/01/15 04:31:04;;;;;;;12.30;6.35;;;;;;;-0.47;83.14;101981.41;5138435;27;20597;-58
2021/01/15 04:33:34;;;;;;;13.95;7.28;;;;;;;-0.53;83.17;101982.44;5137003;27;20451;-56
2021/01/15 04:36:00;;;;;;;18.08;9.55;;;;;;;-0.60;84.35;101976.72;5138661;27;20309;-59
2021/01/15 04:38:27;;;;;;;12.38;6.47;;;;;;;-0.74;82.70;101981.91;5136495;27;20320;-58
2021/01/15 04:40:57;;;;;;;13.82;6.68;;;;;;;-0.68;82.10;101980.94;5139101;27;20574;-58
2021/01/15 04:43:24;;;;;;;12.93;5.78;;;;;;;-0.86;82.39;101984.03;5136722;27;20263;-58
2021/01/15 04:45:54;;;;;;;44.83;18.27;;;;;;;-0.85;82.25;101989.28;5138472;27;20301;-59
2021/01/15 04:48:21;;;;;;;12.30;6.40;;;;;;;-0.87;82.13;101988.19;5136641;27;20222;-56
2021/01/15 04:50:49;;;;;;;9.65;6.20;;;;;;;-0.79;82.39;101994.09;5138838;27;20588;-57
2021/01/15 04:53:17;;;;;;;16.77;7.00;;;;;;;-0.75;82.08;101995.34;5137046;27;20245;-53
2021/01/15 04:55:44;;;;;;;11.90;6.28;;;;;;;-0.62;81.76;101992.50;5138138;27;20302;-59
2021/01/15 04:58:12;;;;;;;11.75;5.90;;;;;;;-0.69;81.52;101991.84;5136613;27;20776;-59
2021/01/15 05:00:41;;;;;;;11.30;6.22;;;;;;;-0.79;82.20;101986.50;5138570;27;20207;-57
2021/01/15 05:03:10;;;;;;;11.68;5.75;;;;;;;-0.78;81.61;101989.94;5137688;27;20235;-54
2021/01/15 05:05:44;;;;;;;14.45;6.07;;;;;;;-0.84;82.19;101996.16;5138006;27;20306;-56
2021/01/15 05:08:12;;;;;;;16.85;7.00;;;;;;;-0.81;81.75;102003.19;5136742;27;20262;-56
2021/01/15 05:10:41;;;;;;;12.13;6.45;;;;;;;-0.80;81.70;102004.97;5138586;27;20282;-59
2021/01/15 05:13:10;;;;;;;54.40;21.35;;;;;;;-0.64;82.94;102005.00;5136659;27;20333;-58
2021/01/15 05:15:43;;;;;;;15.25;7.43;;;;;;;-0.75;81.68;102003.84;5138026;27;20219;-60
2021/01/15 05:18:11;;;;;;;14.55;6.60;;;;;;;-0.84;81.14;101997.78;5135723;27;20245;-59
2021/01/15 05:20:38;;;;;;;20.52;9.70;;;;;;;-0.88;81.64;102004.16;5138376;27;20210;-57
2021/01/15 05:23:05;;;;;;;14.85;6.88;;;;;;;-0.88;80.71;102001.63;5136540;27;20663;-58
2021/01/15 05:25:33;;;;;;;15.25;6.57;;;;;;;-0.87;80.74;102010.13;5137656;27;20218;-56
2021/01/15 05:27:59;;;;;;;14.85;7.45;;;;;;;-0.83;80.92;102017.31;5136091;27;20258;-58
2021/01/15 05:30:28;;;;;;;11.82;6.85;;;;;;;-0.92;80.79;102021.41;5138039;27;20203;-57
2021/01/15 05:32:57;;;;;;;16.15;8.75;;;;;;;-0.89;80.53;102025.16;5136301;27;20315;-58
2021/01/15 05:35:41;;;;;;;15.68;7.57;;;;;;;-0.86;80.31;102027.13;5137763;27;20222;-56
2021/01/15 05:38:11;;;;;;;12.75;7.30;;;;;;;-0.99;80.52;102032.50;5135962;27;20226;-59
2021/01/15 05:40:40;;;;;;;12.80;7.05;;;;;;;-1.01;80.45;102032.34;5137933;27;20194;-58
2021/01/15 05:43:07;;;;;;;14.60;7.03;;;;;;;-1.05;80.16;102031.81;5136131;27;20245;-59
2021/01/15 05:45:34;;;;;;;15.73;7.75;;;;;;;-1.03;80.44;102032.91;5137435;27;20231;-58
2021/01/15 05:48:02;;;;;;;15.25;6.93;;;;;;;-0.99;80.99;102028.34;5135587;27;20276;-57
2021/01/15 05:50:39;;;;;;;15.13;7.88;;;;;;;-0.88;80.75;102033.69;5137872;27;20199;-54
2021/01/15 05:53:06;;;;;;;16.98;7.63;;;;;;;-0.90;80.31;102041.09;5136081;27;20244;-59
2021/01/15 05:55:33;;;;;;;14.98;7.13;;;;;;;-0.92;80.69;102044.22;5137354;27;20310;-59
2021/01/15 05:58:09;;;;;;;15.25;8.00;;;;;;;-0.87;81.23;102040.53;5135680;27;20651;-55
2021/01/15 06:00:38;;;;;;;15.55;7.00;;;;;;;-1.01;81.42;102049.16;5137649;27;20230;-56
2021/01/15 06:03:07;;;;;;;15.05;7.10;;;;;;;-0.90;81.80;102045.25;5135700;27;20241;-54
2021/01/15 06:05:35;;;;;;;13.93;7.22;;;;;;;-0.93;81.80;102048.38;5137415;27;20305;-57
2021/01/15 06:08:03;;;;;;;25.65;10.05;;;;;;;-0.85;82.28;102049.19;5135674;27;20238;-56
2021/01/15 06:10:46;;;;;;;16.92;8.27;;;;;;;-1.11;82.47;102048.19;5137365;27;20205;-58
2021/01/15 06:13:35;;;;;;;18.63;8.65;;;;;;;-1.11;82.63;102057.41;5135699;27;20292;-55
2021/01/15 06:16:03;;;;;;;15.57;8.35;;;;;;;-1.06;82.21;102048.69;5136814;27;20310;-57
2021/01/15 06:18:30;;;;;;;17.20;8.10;;;;;;;-1.11;82.11;102058.31;5135116;27;20296;-57
2021/01/15 06:21:07;;;;;;;15.35;8.15;;;;;;;-1.10;82.48;102056.66;5137392;27;20293;-58
2021/01/15 06:23:40;;;;;;;18.65;7.88;;;;;;;-1.20;82.27;102061.44;5135309;27;20245;-58
2021/01/15 06:26:08;;;;;;;20.55;9.40;;;;;;;-1.12;81.90;102058.13;5136503;27;20260;-58
2021/01/15 06:28:36;;;;;;;20.15;9.60;;;;;;;-1.14;82.57;102060.50;5135284;27;20527;-58
2021/01/15 06:31:05;;;;;;;16.95;7.90;;;;;;;-1.14;82.08;102057.97;5137185;27;20518;-57
2021/01/15 06:33:32;;;;;;;16.67;8.10;;;;;;;-1.05;81.56;102047.03;5135303;27;20266;-56
2021/01/15 06:35:58;;;;;;;14.00;7.63;;;;;;;-1.06;81.76;102056.28;5136516;27;20302;-59
2021/01/15 06:38:29;;;;;;;16.30;8.18;;;;;;;-1.09;82.08;102063.53;5134828;27;20259;-56
2021/01/15 06:40:58;;;;;;;17.15;8.70;;;;;;;-1.06;81.37;102073.09;5136649;27;20191;-55
2021/01/15 06:43:26;;;;;;;15.98;7.68;;;;;;;-1.07;81.55;102074.75;5114705;28;20235;-58
2021/01/15 06:45:54;;;;;;;21.13;8.40;;;;;;;-1.22;81.58;102072.31;5115987;28;20223;-54
2021/01/15 06:48:23;;;;;;;16.80;7.97;;;;;;;-1.19;81.86;102066.69;5114505;28;20581;-52
2021/01/15 06:50:51;;;;;;;20.05;8.52;;;;;;;-1.19;81.44;102070.88;5117764;28;20206;-56
2021/01/15 06:53:20;;;;;;;13.43;7.40;;;;;;;-1.22;81.94;102076.50;5132570;28;20230;-56
2021/01/15 06:55:48;;;;;;;15.63;8.18;;;;;;;-1.29;81.59;102079.97;5136643;28;20222;-55
2021/01/15 06:58:23;;;;;;;16.55;7.63;;;;;;;-1.16;81.56;102078.78;5134787;28;20368;-57
2021/01/15 07:01:14;;;;;;;16.70;8.43;;;;;;;-1.25;81.71;102071.97;5138752;27;20292;-56
2021/01/15 07:04:02;;;;;;;17.20;7.40;;;;;;;-1.29;82.28;102074.91;5138475;27;20321;-57
2021/01/15 07:06:30;;;;;;;17.05;7.22;;;;;;;-1.22;81.46;102079.03;5120280;28;20525;-57
2021/01/15 07:08:59;;;;;;;17.58;8.90;;;;;;;-1.24;81.73;102073.78;5118586;28;20255;-56
2021/01/15 07:11:27;;;;;;;18.33;8.82;;;;;;;-1.25;81.71;102077.06;5120259;28;20202;-53
2021/01/15 07:13:56;;;;;;;23.40;9.35;;;;;;;-1.30;81.87;102080.69;5118195;28;20239;-55
2021/01/15 07:16:29;;;;;;;24.08;11.18;;;;;;;-1.34;81.49;102076.00;5119772;28;20220;-59
2021/01/15 07:19:09;;;;;;;18.50;8.57;;;;;;;-1.37;80.03;102091.75;5118075;28;20231;-56
2021/01/15 07:21:37;;;;;;;17.05;8.35;;;;;;;-1.39;80.84;102092.34;5120154;28;20510;-56
2021/01/15 07:24:04;;;;;;;18.67;9.32;;;;;;;-1.36;80.08;102087.63;5117845;28;20234;-52
2021/01/15 07:26:39;;;;;;;26.02;10.07;;;;;;;-1.32;80.38;102089.78;5119662;28;20282;-56
2021/01/15 07:29:09;;;;;;;20.92;9.60;;;;;;;-1.35;80.83;102104.59;5118101;28;20240;-53
2021/01/15 07:31:37;;;;;;;17.42;9.00;;;;;;;-1.42;80.58;102104.66;5120063;28;20235;-54
2021/01/15 07:34:16;;;;;;;23.75;10.38;;;;;;;-1.40;79.71;102108.25;5117773;28;20579;-57
2021/01/15 07:36:42;;;;;;;16.73;7.78;;;;;;;-1.40;79.86;102110.78;5119659;28;20241;-52
2021/01/15 07:39:10;;;;;;;18.30;8.13;;;;;;;-1.43;79.89;102115.53;5117862;28;20235;-56
2021/01/15 07:41:38;;;;;;;17.63;8.52;;;;;;;-1.42;80.44;102115.69;5119932;28;20227;-57
2021/01/15 07:44:36;;;;;;;18.60;8.73;;;;;;;-1.40;79.68;102125.97;5116867;28;20263;-56
2021/01/15 07:47:03;;;;;;;24.05;10.45;;;;;;;-1.38;79.62;102124.53;5118312;28;20262;-57
2021/01/15 07:49:46;;;;;;;20.23;9.18;;;;;;;-1.38;79.08;102129.59;5119299;28;20220;-54
2021/01/15 07:52:13;;;;;;;17.92;8.52;;;;;;;-1.33;79.59;102138.63;5117885;28;20195;-56
2021/01/15 07:55:02;;;;;;;23.13;8.77;;;;;;;-1.45;80.29;102142.31;5118990;28;20238;-53
2021/01/15 07:57:30;;;;;;;31.17;12.93;;;;;;;-1.44;81.31;102134.88;5117491;28;20231;-57
2021/01/15 08:00:18;;;;;;;19.95;8.55;;;;;;;-1.53;81.50;102137.25;5119246;28;20532;-58
2021/01/15 08:02:45;;;;;;;19.98;9.88;;;;;;;-1.41;81.42;102139.38;5116925;28;20235;-59
2021/01/15 08:05:13;;;;;;;20.35;9.45;;;;;;;-1.42;81.82;102143.56;5118956;28;20204;-55
2021/01/15 08:07:39;;;;;;;20.77;9.73;;;;;;;-1.42;82.01;102143.56;5116651;28;20238;-56
2021/01/15 08:10:09;;;;;;;18.00;8.38;;;;;;;-1.44;82.11;102144.09;5119130;28;20550;-54
2021/01/15 08:12:37;;;;;;;16.70;8.25;;;;;;;-1.43;82.56;102149.31;5117009;28;20265;-57
2021/01/15 08:15:28;;;;;;;24.88;9.60;;;;;;;-1.44;82.64;102142.47;5118712;28;20203;-56
2021/01/15 08:17:55;;;;;;;23.73;9.85;;;;;;;-1.46;83.11;102140.47;5117060;28;20578;-54
2021/01/15 08:20:22;;;;;;;20.73;10.90;;;;;;;-1.43;82.49;102140.84;5118951;28;20203;-57
2021/01/15 08:22:50;;;;;;;22.73;9.68;;;;;;;-1.53;82.57;102138.91;5116669;28;20262;-53
2021/01/15 08:25:27;;;;;;;25.40;11.38;;;;;;;-1.28;85.33;102152.69;5118777;28;20206;-59
2021/01/15 08:27:54;;;;;;;20.45;9.32;;;;;;;-1.35;82.84;102147.66;5116738;28;20235;-56
2021/01/15 08:30:22;;;;;;;19.33;10.02;;;;;;;-1.57;82.55;102145.25;5119001;28;20257;-53
2021/01/15 08:32:49;;;;;;;23.42;10.90;;;;;;;-1.55;82.27;102146.31;5116631;28;20257;-56
2021/01/15 08:35:22;;;;;;;22.67;9.20;;;;;;;-1.66;82.73;102146.72;5123860;27;20241;-58
2021/01/15 08:38:01;;;;;;;21.40;10.05;;;;;;;-1.59;82.96;102155.94;5136880;27;20321;-58
2021/01/15 08:40:28;;;;;;;23.90;10.00;;;;;;;-1.59;82.93;102153.41;5139468;27;20256;-56
2021/01/15 08:42:56;;;;;;;60.78;25.13;;;;;;;-1.42;84.61;102152.78;5136965;27;20613;-59
2021/01/15 08:45:28;;;;;;;37.60;16.27;;;;;;;-1.41;83.95;102158.00;5138672;27;20202;-59
2021/01/15 08:47:56;;;;;;;22.23;10.25;;;;;;;-1.38;82.68;102160.88;5136302;27;20258;-57
2021/01/15 08:50:23;;;;;;;21.13;9.90;;;;;;;-1.41;82.82;102165.63;5137697;27;20203;-52
2021/01/15 08:52:51;;;;;;;22.10;10.50;;;;;;;-1.37;81.50;102161.78;5132731;27;20288;-58
2021/01/15 08:55:19;;;;;;;25.42;10.95;;;;;;;-1.40;81.89;102166.50;5138207;27;20286;-55
2021/01/15 08:57:47;;;;;;;24.35;11.70;;;;;;;-1.40;82.02;102161.44;5136997;27;20230;-56
2021/01/15 09:00:15;;;;;;;21.90;10.18;;;;;;;-1.42;81.33;102167.97;5138587;27;20533;-55
2021/01/15 09:02:43;;;;;;;22.95;10.77;;;;;;;-1.42;80.64;102178.09;5136844;27;20577;-56
2021/01/15 09:05:13;;;;;;;22.17;10.20;;;;;;;-1.54;80.98;102177.63;5138298;27;20248;-55
2021/01/15 09:07:44;;;;;;;26.20;10.70;;;;;;;-1.58;81.28;102178.91;5136921;27;20237;-56
2021/01/15 09:10:12;;;;;;;19.63;9.52;;;;;;;-1.59;82.13;102178.72;5138360;27;20515;-54
2021/01/15 09:12:42;;;;;;;36.05;15.20;;;;;;;-1.58;82.74;102175.47;5136633;27;20230;-56
2021/01/15 09:15:19;;;;;;;24.90;9.80;;;;;;;-1.53;81.64;102182.84;5137979;27;20198;-57
2021/01/15 09:17:47;;;;;;;19.92;9.20;;;;;;;-1.66;80.70;102182.16;5131844;27;20284;-59
2021/01/15 09:20:15;;;;;;;25.58;10.95;;;;;;;-1.67;80.83;102187.97;5138339;27;20230;-52
2021/01/15 09:22:43;;;;;;;30.95;13.23;;;;;;;-1.56;81.63;102190.09;5135708;27;20230;-58
2021/01/15 09:25:11;;;;;;;20.63;9.65;;;;;;;-1.59;81.43;102197.31;5137563;27;20199;-55
2021/01/15 09:27:37;;;;;;;22.73;9.90;;;;;;;-1.69;81.85;102186.91;5136208;27;20258;-53
2021/01/15 09:30:05;;;;;;;17.17;8.25;;;;;;;-1.62;80.91;102202.06;5138129;27;20611;-55
2021/01/15 09:32:32;;;;;;;19.60;8.10;;;;;;;-1.62;80.90;102194.47;5136289;27;20592;-58
2021/01/15 09:34:59;;;;;;;21.85;9.05;;;;;;;-1.66;81.31;102198.28;5137718;27;20252;-57
2021/01/15 09:37:26;;;;;;;18.70;9.02;;;;;;;-1.63;81.46;102200.25;5135756;27;20667;-54
2021/01/15 09:39:53;;;;;;;22.95;10.32;;;;;;;-1.72;81.06;102197.56;5137870;27;20313;-53
2021/01/15 09:42:19;;;;;;;21.80;10.18;;;;;;;-1.64;81.67;102206.06;5136320;27;20293;-54
2021/01/15 09:44:46;;;;;;;36.42;13.63;;;;;;;-1.56;81.92;102202.75;5137582;27;20281;-56
2021/01/15 09:47:12;;;;;;;38.63;15.73;;;;;;;-1.63;81.16;102207.84;5136186;27;20303;-56
2021/01/15 09:49:39;;;;;;;19.90;8.88;;;;;;;-1.48;80.59;102207.78;5137742;27;20198;-55
2021/01/15 09:52:07;;;;;;;19.15;9.00;;;;;;;-1.50;80.72;102217.72;5136179;27;20205;-55
2021/01/15 09:54:35;;;;;;;22.85;9.43;;;;;;;-1.47;80.36;102219.72;5137141;27;20317;-53
2021/01/15 09:57:02;;;;;;;18.95;7.82;;;;;;;-1.51;80.62;102215.94;5136175;27;20254;-54
2021/01/15 09:59:28;;;;;;;20.90;8.63;;;;;;;-1.65;80.78;102216.88;5137290;27;20324;-55
2021/01/15 10:01:55;;;;;;;26.58;11.40;;;;;;;-1.65;80.87;102227.00;5137429;27;20233;-56
2021/01/15 10:04:22;;;;;;;20.20;9.10;;;;;;;-1.60;80.37;102223.38;5135283;27;20292;-57
2021/01/15 10:06:49;;;;;;;23.60;9.63;;;;;;;-1.55;80.43;102237.47;5137419;27;20292;-54
2021/01/15 10:09:16;;;;;;;21.10;10.35;;;;;;;-1.73;81.01;102230.28;5135468;27;20234;-56
2021/01/15 10:11:45;;;;;;;19.98;9.20;;;;;;;-1.73;81.19;102236.28;5137432;27;20195;-57
2021/01/15 10:14:13;;;;;;;19.38;9.30;;;;;;;-1.77;80.37;102237.53;5135222;27;20239;-53
2021/01/15 10:16:41;;;;;;;17.80;7.90;;;;;;;-1.75;80.44;102236.81;5137445;27;20310;-56
2021/01/15 10:19:09;;;;;;;20.58;9.50;;;;;;;-1.62;80.62;102247.63;5135273;27;20246;-57
2021/01/15 10:21:38;;;;;;;18.83;8.63;;;;;;;-1.67;80.60;102241.13;5137050;27;20203;-53
2021/01/15 10:24:06;;;;;;;16.00;7.40;;;;;;;-1.80;80.05;102244.78;5134994;27;20537;-57
2021/01/15 10:26:35;;;;;;;20.70;9.50;;;;;;;-1.75;80.39;102246.94;5136854;27;20254;-56
2021/01/15 10:29:05;;;;;;;21.80;9.25;;;;;;;-1.74;80.58;102242.06;5135463;27;20313;-59
2021/01/15 10:31:33;;;;;;;20.40;9.45;;;;;;;-1.70;80.70;102246.72;5136983;27;20238;-58
2021/01/15 10:34:01;;;;;;;16.98;7.88;;;;;;;-1.60;80.49;102243.63;5129892;27;20242;-55
2021/01/15 10:36:28;;;;;;;22.33;10.27;;;;;;;-1.59;80.71;102250.50;5136398;27;20222;-54
2021/01/15 10:38:55;;;;;;;18.20;8.90;;;;;;;-1.48;80.26;102248.28;5135241;27;20261;-54
2021/01/15 10:41:30;;;;;;;16.02;8.10;;;;;;;-1.75;80.31;102245.28;5137254;27;20252;-58
2021/01/15 10:43:58;;;;;;;17.10;8.30;;;;;;;-1.69;80.65;102240.94;5134176;27;20321;-55
2021/01/15 10:46:29;;;;;;;18.67;8.13;;;;;;;-1.72;80.96;102243.13;5133850;28;20218;-59
2021/01/15 10:48:56;;;;;;;24.77;9.95;;;;;;;-1.63;81.07;102248.34;5135449;28;20232;-56
2021/01/15 10:51:23;;;;;;;21.17;8.55;;;;;;;-1.55;80.23;102247.59;5136945;28;20584;-58
2021/01/15 10:53:49;;;;;;;18.13;8.02;;;;;;;-1.65;81.11;102239.66;5134343;28;20253;-56
2021/01/15 10:56:16;;;;;;;24.40;10.88;;;;;;;-1.47;80.56;102243.41;5136454;28;20223;-59
2021/01/15 10:58:43;;;;;;;21.23;9.38;;;;;;;-1.53;80.60;102243.59;5134926;28;20230;-57
2021/01/15 11:01:10;;;;;;;17.90;8.15;;;;;;;-1.58;80.42;102242.19;5136674;28;20516;-57
2021/01/15 11:03:37;;;;;;;23.00;10.13;;;;;;;-1.52;81.65;102240.38;5134804;28;20245;-54
2021/01/15 11:06:04;;;;;;;18.08;7.95;;;;;;;-1.51;81.05;102237.09;5134326;28;20237;-54
2021/01/15 11:08:31;;;;;;;20.92;7.18;;;;;;;-1.67;79.63;102236.06;5133907;28;20269;-55
2021/01/15 11:10:58;;;;;;;19.80;9.10;;;;;;;-1.59;80.96;102239.47;5136762;28;20205;-55
2021/01/15 11:13:25;;;;;;;15.80;7.88;;;;;;;-1.39;80.70;102231.63;5134044;28;20227;-58
2021/01/15 11:15:51;;;;;;;19.10;7.53;;;;;;;-1.32;80.40;102238.28;5135825;27;20254;-56
2021/01/15 11:18:19;;;;;;;21.15;8.70;;;;;;;-1.44;80.00;102230.22;5134647;28;20234;-56
2021/01/15 11:20:46;;;;;;;24.73;9.40;;;;;;;-1.38;79.87;102231.78;5136526;28;20268;-56
2021/01/15 11:23:14;;;;;;;15.25;6.40;;;;;;;-1.19;79.54;102233.88;5129536;28;20254;-55